createdAt,value
2019-02-10T00:00:49.635Z,75.69
2019-02-10T00:03:16.684Z,75.68
2019-02-10T00:05:43.750Z,75.79
2019-02-10T00:08:10.796Z,75.88
2019-02-10T00:10:37.870Z,75.97
2019-02-10T00:13:26.086Z,75.99
2019-02-10T00:15:53.126Z,75.97
2019-02-10T00:18:20.169Z,75.90
2019-02-10T00:20:47.282Z,75.90
2019-02-10T00:23:14.352Z,75.80
2019-02-10T00:25:41.407Z,75.76
2019-02-10T00:28:08.471Z,75.84
2019-02-10T00:30:35.576Z,75.91
2019-02-10T00:33:02.639Z,75.94
2019-02-10T00:35:29.694Z,75.99
2019-02-10T00:37:56.752Z,75.89
2019-02-10T00:40:23.857Z,75.83
2019-02-10T00:42:50.923Z,75.79
2019-02-10T00:45:17.993Z,75.83
2019-02-10T00:47:45.118Z,75.82
2019-02-10T00:50:12.178Z,75.81
2019-02-10T00:52:39.222Z,75.78
2019-02-10T00:55:08.361Z,75.74
2019-02-10T00:57:35.437Z,75.75
2019-02-10T01:00:02.504Z,75.76
2019-02-10T01:02:29.563Z,75.74
2019-02-10T01:04:56.609Z,75.79
2019-02-10T01:07:23.652Z,75.89
2019-02-10T01:09:50.703Z,75.86
2019-02-10T01:12:17.752Z,75.85
2019-02-10T01:14:44.797Z,75.82
2019-02-10T01:17:11.862Z,75.82
2019-02-10T01:19:38.913Z,75.81
2019-02-10T01:22:05.962Z,75.85
2019-02-10T01:24:33.012Z,75.90
2019-02-10T01:27:00.054Z,75.91
2019-02-10T01:29:27.104Z,75.93
2019-02-10T01:31:54.192Z,75.90
2019-02-10T01:34:21.239Z,75.84
2019-02-10T01:36:49.637Z,75.75
2019-02-10T01:39:19.177Z,75.79
2019-02-10T01:41:46.238Z,75.87
2019-02-10T01:44:13.282Z,75.87
2019-02-10T01:46:40.346Z,75.82
2019-02-10T01:49:07.413Z,75.81
2019-02-10T01:51:34.441Z,75.79
2019-02-10T01:54:01.489Z,75.72
2019-02-10T01:56:28.524Z,75.70
2019-02-10T01:58:55.556Z,75.69
2019-02-10T02:01:22.600Z,75.80
2019-02-10T02:03:49.630Z,75.79
2019-02-10T02:06:16.676Z,75.75
2019-02-10T02:08:43.714Z,75.71
2019-02-10T02:11:10.749Z,75.72
2019-02-10T02:13:37.789Z,75.63
2019-02-10T02:16:04.842Z,75.68
2019-02-10T02:18:31.873Z,75.59
2019-02-10T02:20:58.932Z,75.52
2019-02-10T02:23:26.025Z,75.44
2019-02-10T02:25:53.096Z,75.38
2019-02-10T02:28:20.137Z,75.10
2019-02-10T02:30:47.186Z,75.38
2019-02-10T02:33:14.243Z,75.54
2019-02-10T02:35:41.307Z,75.67
2019-02-10T02:38:08.368Z,75.79
2019-02-10T02:40:35.391Z,75.88
2019-02-10T02:43:02.411Z,75.85
2019-02-10T02:45:29.447Z,75.82
2019-02-10T02:47:56.509Z,75.76
2019-02-10T02:50:23.561Z,75.66
2019-02-10T02:52:50.602Z,75.73
2019-02-10T02:55:17.668Z,75.83
2019-02-10T02:57:44.727Z,76.00
2019-02-10T03:00:11.884Z,76.10
2019-02-10T03:02:38.950Z,76.17
2019-02-10T03:05:06.945Z,76.17
2019-02-10T03:07:34.015Z,76.22
2019-02-10T03:10:01.094Z,76.33
2019-02-10T03:12:28.128Z,76.20
2019-02-10T03:14:55.165Z,76.17
2019-02-10T03:17:22.221Z,76.28
2019-02-10T03:19:49.272Z,76.27
2019-02-10T03:22:16.299Z,76.35
2019-02-10T03:24:43.345Z,76.41
2019-02-10T03:27:10.387Z,76.42
2019-02-10T03:29:37.461Z,76.34
2019-02-10T03:32:04.509Z,76.22
2019-02-10T03:34:31.584Z,76.05
2019-02-10T03:36:58.641Z,75.84
2019-02-10T03:39:25.715Z,75.88
2019-02-10T03:41:52.763Z,75.86
2019-02-10T03:44:19.807Z,75.83
2019-02-10T03:46:46.844Z,75.84
2019-02-10T03:49:13.876Z,76.02
2019-02-10T03:51:40.982Z,76.23
2019-02-10T03:54:08.072Z,76.41
2019-02-10T03:56:35.138Z,76.41
2019-02-10T03:59:02.214Z,76.40
2019-02-10T04:01:29.282Z,76.41
2019-02-10T04:03:56.323Z,76.43
2019-02-10T04:06:23.413Z,76.48
2019-02-10T04:08:50.450Z,76.53
2019-02-10T04:11:17.490Z,76.48
2019-02-10T04:13:44.547Z,76.60
2019-02-10T04:16:11.574Z,76.68
2019-02-10T04:18:38.633Z,76.72
2019-02-10T04:21:05.671Z,76.66
2019-02-10T04:23:32.721Z,76.59
2019-02-10T04:25:59.762Z,76.27
2019-02-10T04:28:26.806Z,76.27
2019-02-10T04:30:53.852Z,76.34
2019-02-10T04:33:20.901Z,76.25
2019-02-10T04:35:47.969Z,76.30
2019-02-10T04:38:14.992Z,76.37
2019-02-10T04:40:42.089Z,76.32
2019-02-10T04:43:09.218Z,76.24
2019-02-10T04:45:36.294Z,76.33
2019-02-10T04:48:03.347Z,76.35
2019-02-10T04:50:30.374Z,76.40
2019-02-10T04:52:57.451Z,76.37
2019-02-10T04:55:24.507Z,76.37
2019-02-10T04:57:51.529Z,76.57
2019-02-10T05:00:18.585Z,76.55
2019-02-10T05:02:45.637Z,76.43
2019-02-10T05:05:12.709Z,76.50
2019-02-10T05:07:39.773Z,76.50
2019-02-10T05:10:13.826Z,76.36
2019-02-10T05:12:40.877Z,76.32
2019-02-10T05:15:07.966Z,76.32
2019-02-10T05:17:35.005Z,76.51
2019-02-10T05:20:02.097Z,76.86
2019-02-10T05:22:29.161Z,76.86
2019-02-10T05:24:56.198Z,76.59
2019-02-10T05:27:23.257Z,76.59
2019-02-10T05:29:50.313Z,76.95
2019-02-10T05:32:17.389Z,76.95
2019-02-10T05:34:44.393Z,76.72
2019-02-10T05:37:11.437Z,76.72
2019-02-10T05:39:38.507Z,76.68
2019-02-10T05:42:05.555Z,76.53
2019-02-10T05:44:32.605Z,76.60
2019-02-10T05:46:59.653Z,76.53
2019-02-10T05:49:26.705Z,76.71
2019-02-10T05:51:53.759Z,78.21
2019-02-10T05:54:20.799Z,78.21
2019-02-10T05:56:47.875Z,79.22
2019-02-10T05:59:14.915Z,78.88
2019-02-10T06:02:16.526Z,78.11
2019-02-10T06:04:43.548Z,77.40
2019-02-10T06:07:12.781Z,77.67
2019-02-10T06:09:39.813Z,78.10
2019-02-10T06:12:06.868Z,77.03
2019-02-10T06:14:33.913Z,76.41
2019-02-10T06:17:00.965Z,77.01
2019-02-10T06:19:27.991Z,74.45
2019-02-10T06:21:55.076Z,74.11
2019-02-10T06:24:22.100Z,74.47
2019-02-10T06:26:49.130Z,74.19
2019-02-10T06:29:16.194Z,69.73
2019-02-10T06:31:43.239Z,68.91
2019-02-10T06:34:10.313Z,71.18
2019-02-10T06:36:37.360Z,68.19
2019-02-10T06:39:04.956Z,67.28
2019-02-10T06:41:32.010Z,67.51
2019-02-10T06:43:59.058Z,67.98
2019-02-10T06:46:26.103Z,68.67
2019-02-10T06:48:53.208Z,69.12
2019-02-10T06:51:20.264Z,69.77
2019-02-10T06:53:47.306Z,70.28
2019-02-10T06:56:14.356Z,70.62
2019-02-10T06:58:41.406Z,70.93
2019-02-10T07:01:29.967Z,71.06
2019-02-10T07:04:15.312Z,71.61
2019-02-10T07:06:42.349Z,72.15
2019-02-10T07:09:09.388Z,72.38
2019-02-10T07:11:36.435Z,72.21
2019-02-10T07:14:08.380Z,72.18
2019-02-10T07:16:45.152Z,72.67
2019-02-10T07:19:48.655Z,73.17
2019-02-10T07:22:59.477Z,73.33
2019-02-10T07:26:01.903Z,73.64
2019-02-10T07:29:00.075Z,73.68
2019-02-10T07:31:48.269Z,73.85
2019-02-10T07:34:54.286Z,74.65
2019-02-10T07:37:52.354Z,74.46
2019-02-10T07:40:58.371Z,74.18
2019-02-10T07:44:04.406Z,73.15
2019-02-10T07:47:10.479Z,72.65
2019-02-10T07:50:16.509Z,72.88
2019-02-10T07:53:22.499Z,73.06
2019-02-10T07:56:28.862Z,73.50
2019-02-10T07:59:34.927Z,73.76
2019-02-10T08:02:40.947Z,74.09
2019-02-10T08:05:46.971Z,73.66
2019-02-10T08:08:53.005Z,73.42
2019-02-10T08:11:59.033Z,73.35
2019-02-10T08:15:05.025Z,73.26
2019-02-10T08:18:11.043Z,73.76
2019-02-10T08:21:04.285Z,73.98
2019-02-10T08:24:10.277Z,74.05
2019-02-10T08:27:16.277Z,73.79
2019-02-10T08:30:11.552Z,73.62
2019-02-10T08:33:17.543Z,73.38
2019-02-10T08:36:16.200Z,72.98
2019-02-10T08:39:22.195Z,72.30
2019-02-10T08:42:28.211Z,71.72
2019-02-10T08:45:17.952Z,71.43
2019-02-10T08:48:17.613Z,71.23
2019-02-10T08:51:23.799Z,70.83
2019-02-10T08:53:50.856Z,73.48
2019-02-10T08:56:17.909Z,72.16
2019-02-10T08:58:44.980Z,71.18
2019-02-10T09:01:12.041Z,69.59
2019-02-10T09:03:39.108Z,69.81
2019-02-10T09:06:06.216Z,67.01
2019-02-10T09:08:33.257Z,65.34
2019-02-10T09:11:00.336Z,64.55
2019-02-10T09:13:27.408Z,64.07
2019-02-10T09:15:54.471Z,63.50
2019-02-10T09:18:21.531Z,63.45
2019-02-10T09:20:48.618Z,63.35
2019-02-10T09:23:15.722Z,63.40
2019-02-10T09:25:42.771Z,63.21
2019-02-10T09:28:09.844Z,63.07
2019-02-10T09:30:36.911Z,63.17
2019-02-10T09:33:03.954Z,63.36
2019-02-10T09:35:31.009Z,63.32
2019-02-10T09:37:58.085Z,63.30
2019-02-10T09:40:25.146Z,63.17
2019-02-10T09:42:52.206Z,63.02
2019-02-10T09:45:19.283Z,62.83
2019-02-10T09:47:46.320Z,62.74
2019-02-10T09:50:15.651Z,62.13
2019-02-10T09:52:42.709Z,61.79
2019-02-10T09:55:10.499Z,61.57
2019-02-10T09:57:37.555Z,61.35
2019-02-10T10:00:06.011Z,60.92
2019-02-10T10:02:33.074Z,60.78
2019-02-10T10:05:00.241Z,60.54
2019-02-10T10:07:27.391Z,60.22
2019-02-10T10:09:54.451Z,59.58
2019-02-10T10:12:21.540Z,59.14
2019-02-10T10:14:48.588Z,58.65
2019-02-10T10:17:15.675Z,58.64
2019-02-10T10:19:42.766Z,58.26
2019-02-10T10:22:09.863Z,57.85
2019-02-10T10:24:37.246Z,58.02
2019-02-10T10:27:06.523Z,57.88
2019-02-10T10:29:33.961Z,57.69
2019-02-10T10:32:01.073Z,57.23
2019-02-10T10:34:28.178Z,57.24
2019-02-10T10:36:55.293Z,57.57
2019-02-10T10:39:27.444Z,57.41
2019-02-10T10:41:51.632Z,57.00
2019-02-10T10:44:18.776Z,56.95
2019-02-10T10:46:45.874Z,57.02
2019-02-10T10:49:12.986Z,57.04
2019-02-10T10:51:40.105Z,57.25
2019-02-10T10:54:07.253Z,57.25
2019-02-10T10:56:34.365Z,57.59
2019-02-10T10:59:01.561Z,57.69
2019-02-10T11:01:30.891Z,57.18
2019-02-10T11:03:58.006Z,57.17
2019-02-10T11:06:25.098Z,56.83
2019-02-10T11:08:52.251Z,56.42
2019-02-10T11:11:20.888Z,56.12
2019-02-10T11:13:49.018Z,56.16
2019-02-10T11:16:18.996Z,55.79
2019-02-10T11:18:46.392Z,55.61
2019-02-10T11:21:13.720Z,55.55
2019-02-10T11:23:42.586Z,56.25
2019-02-10T11:26:09.799Z,59.79
2019-02-10T11:28:36.926Z,59.11
2019-02-10T11:31:04.062Z,57.19
2019-02-10T11:33:31.184Z,57.00
2019-02-10T11:35:58.283Z,57.35
2019-02-10T11:38:25.375Z,57.59
2019-02-10T11:40:52.499Z,56.50
2019-02-10T11:43:19.732Z,56.03
2019-02-10T11:45:46.886Z,54.77
2019-02-10T11:48:13.994Z,51.46
2019-02-10T11:50:41.129Z,52.14
2019-02-10T11:53:08.650Z,52.86
2019-02-10T11:55:35.767Z,52.99
2019-02-10T11:58:02.901Z,53.41
2019-02-10T12:00:30.006Z,54.22
2019-02-10T12:02:57.142Z,54.38
2019-02-10T12:05:26.625Z,54.41
2019-02-10T12:07:53.732Z,54.00
2019-02-10T12:10:20.844Z,53.55
2019-02-10T12:12:47.954Z,53.33
2019-02-10T12:15:15.087Z,52.81
2019-02-10T12:17:42.238Z,52.34
2019-02-10T12:20:09.488Z,52.31
2019-02-10T12:22:39.723Z,53.06
2019-02-10T12:25:07.028Z,52.76
2019-02-10T12:27:34.196Z,53.03
2019-02-10T12:30:03.141Z,53.94
2019-02-10T12:32:30.410Z,53.42
2019-02-10T12:34:58.789Z,53.16
2019-02-10T12:37:32.362Z,53.81
2019-02-10T12:39:59.860Z,53.27
2019-02-10T12:42:23.945Z,54.29
2019-02-10T12:44:51.070Z,53.24
2019-02-10T12:47:18.193Z,51.55
2019-02-10T12:49:45.357Z,50.58
2019-02-10T12:52:12.443Z,49.99
2019-02-10T12:54:39.581Z,49.56
2019-02-10T12:57:07.558Z,48.95
2019-02-10T12:59:34.737Z,48.48
2019-02-10T13:02:01.894Z,48.42
2019-02-10T13:04:29.043Z,47.89
2019-02-10T13:06:57.468Z,48.14
2019-02-10T13:09:24.970Z,47.42
2019-02-10T13:11:58.245Z,46.97
2019-02-10T13:14:21.161Z,46.29
2019-02-10T13:16:48.357Z,46.65
2019-02-10T13:19:15.471Z,47.02
2019-02-10T13:21:42.605Z,46.62
2019-02-10T13:24:09.714Z,46.65
2019-02-10T13:26:36.873Z,47.31
2019-02-10T13:29:03.984Z,47.46
2019-02-10T13:31:31.135Z,47.55
2019-02-10T13:36:37.175Z,46.98
2019-02-10T13:39:07.168Z,47.09
2019-02-10T13:41:36.947Z,46.87
2019-02-10T13:44:04.987Z,47.07
2019-02-10T13:46:32.146Z,47.46
2019-02-10T13:48:59.282Z,48.47
2019-02-10T13:51:26.404Z,49.10
2019-02-10T13:53:53.532Z,49.62
2019-02-10T13:56:20.655Z,49.99
2019-02-10T13:58:47.786Z,49.90
2019-02-10T14:01:14.917Z,49.61
2019-02-10T14:03:42.066Z,50.63
2019-02-10T14:06:10.323Z,50.90
2019-02-10T14:08:37.431Z,50.14
2019-02-10T14:11:04.602Z,50.04
2019-02-10T14:13:31.824Z,49.92
2019-02-10T14:15:59.022Z,49.77
2019-02-10T14:18:26.189Z,49.72
2019-02-10T14:20:53.674Z,48.54
2019-02-10T14:23:21.092Z,47.80
2019-02-10T14:25:48.589Z,47.52
2019-02-10T14:28:15.736Z,48.03
2019-02-10T14:30:42.864Z,48.07
2019-02-10T14:33:09.995Z,47.44
2019-02-10T14:35:37.151Z,47.37
2019-02-10T14:38:04.305Z,47.94
2019-02-10T14:40:33.641Z,47.99
2019-02-10T14:43:00.731Z,47.90
2019-02-10T14:45:27.880Z,48.76
2019-02-10T14:47:55.817Z,50.28
2019-02-10T14:50:24.972Z,50.66
2019-02-10T14:52:53.397Z,51.39
2019-02-10T14:55:20.762Z,51.93
2019-02-10T14:57:50.639Z,51.51
2019-02-10T15:00:17.786Z,51.12
2019-02-10T15:02:44.937Z,50.03
2019-02-10T15:05:12.312Z,49.26
2019-02-10T15:07:39.704Z,48.52
2019-02-10T15:10:08.887Z,48.79
2019-02-10T15:12:36.316Z,49.18
2019-02-10T15:15:03.980Z,49.58
2019-02-10T15:17:31.255Z,49.72
2019-02-10T15:19:58.457Z,50.28
2019-02-10T15:22:25.655Z,49.95
2019-02-10T15:24:55.390Z,50.21
2019-02-10T15:27:22.542Z,49.48
2019-02-10T15:29:52.200Z,49.64
2019-02-10T15:32:19.362Z,49.88
2019-02-10T15:34:46.526Z,50.29
2019-02-10T15:37:13.854Z,51.01
2019-02-10T15:39:41.034Z,51.08
2019-02-10T15:42:09.631Z,50.50
2019-02-10T15:44:38.032Z,50.74
2019-02-10T15:47:05.236Z,51.11
2019-02-10T15:49:32.398Z,51.46
2019-02-10T15:51:59.560Z,51.99
2019-02-10T15:54:26.760Z,52.89
2019-02-10T15:56:54.316Z,53.23
2019-02-10T15:59:23.501Z,53.78
2019-02-10T16:01:50.971Z,54.15
2019-02-10T16:04:19.046Z,54.63
2019-02-10T16:06:46.636Z,54.78
2019-02-10T16:09:14.302Z,55.25
2019-02-10T16:11:41.526Z,55.27
2019-02-10T16:14:09.007Z,55.63
2019-02-10T16:16:36.220Z,56.12
2019-02-10T16:19:03.743Z,55.91
2019-02-10T16:21:35.549Z,56.27
2019-02-10T16:24:03.177Z,56.61
2019-02-10T16:26:30.660Z,57.30
2019-02-10T16:28:58.113Z,57.64
2019-02-10T16:31:25.713Z,57.69
2019-02-10T16:33:53.445Z,57.76
2019-02-10T16:36:20.736Z,58.63
2019-02-10T16:38:51.182Z,58.14
2019-02-10T16:41:19.626Z,58.04
2019-02-10T16:43:46.960Z,58.75
2019-02-10T16:46:15.228Z,59.40
2019-02-10T16:48:44.507Z,59.38
2019-02-10T16:51:11.903Z,58.90
2019-02-10T16:53:39.196Z,58.72
2019-02-10T16:56:06.475Z,59.26
2019-02-10T16:58:33.773Z,59.54
2019-02-10T17:01:01.101Z,59.49
2019-02-10T17:03:29.921Z,59.43
2019-02-10T17:05:57.483Z,59.65
2019-02-10T17:08:25.021Z,59.82
2019-02-10T17:10:52.651Z,60.32
2019-02-10T17:13:21.784Z,60.53
2019-02-10T17:15:50.601Z,60.78
2019-02-10T17:18:18.262Z,61.11
2019-02-10T17:20:50.479Z,61.38
2019-02-10T17:23:18.448Z,61.76
2019-02-10T17:25:45.938Z,61.77
2019-02-10T17:28:13.976Z,62.12
2019-02-10T17:30:41.778Z,61.80
2019-02-10T17:33:09.788Z,61.47
2019-02-10T17:35:39.458Z,61.26
2019-02-10T17:38:06.919Z,60.24
2019-02-10T17:40:38.539Z,59.51
2019-02-10T17:43:05.958Z,60.55
2019-02-10T17:45:33.672Z,60.91
2019-02-10T17:48:01.453Z,59.06
2019-02-10T17:50:30.600Z,59.06
2019-02-10T17:52:59.243Z,58.65
2019-02-10T17:55:29.660Z,56.05
2019-02-10T17:57:58.335Z,54.75
2019-02-10T18:00:32.447Z,54.99
2019-02-10T18:03:00.716Z,55.53
2019-02-10T18:05:30.474Z,56.13
2019-02-10T18:07:58.060Z,56.59
2019-02-10T18:10:26.407Z,57.23
2019-02-10T18:12:54.636Z,57.65
2019-02-10T18:15:43.171Z,58.24
2019-02-10T18:18:36.134Z,58.65
2019-02-10T18:21:23.648Z,59.05
2019-02-10T18:24:14.006Z,59.50
2019-02-10T18:27:05.368Z,59.83
2019-02-10T18:29:45.378Z,60.47
2019-02-10T18:32:41.355Z,60.87
2019-02-10T18:35:25.189Z,61.25
2019-02-10T18:38:22.211Z,61.47
2019-02-10T18:41:01.807Z,61.46
2019-02-10T18:43:47.272Z,60.16
2019-02-10T18:46:28.835Z,57.86
2019-02-10T18:49:17.455Z,57.36
2019-02-10T18:52:07.561Z,56.21
2019-02-10T18:54:58.079Z,55.56
2019-02-10T18:57:57.842Z,56.33
2019-02-10T19:00:54.660Z,60.10
2019-02-10T19:03:35.354Z,63.07
2019-02-10T19:06:25.649Z,66.18
2019-02-10T19:09:13.294Z,67.55
2019-02-10T19:12:07.177Z,68.93
2019-02-10T19:14:56.760Z,69.76
2019-02-10T19:17:35.530Z,69.69
2019-02-10T19:20:25.691Z,70.56
2019-02-10T19:23:13.260Z,71.57
2019-02-10T19:25:59.963Z,72.71
2019-02-10T19:28:54.260Z,73.03
2019-02-10T19:32:00.077Z,73.12
2019-02-10T19:34:57.621Z,73.69
2019-02-10T19:37:46.752Z,73.51
2019-02-10T19:40:30.002Z,73.31
2019-02-10T19:43:17.465Z,73.40
2019-02-10T19:45:53.901Z,73.18
2019-02-10T19:48:43.501Z,73.22
2019-02-10T19:51:30.707Z,73.51
2019-02-10T19:54:16.859Z,73.76
2019-02-10T19:57:02.705Z,73.93
2019-02-10T19:59:50.440Z,74.10
2019-02-10T20:02:37.526Z,73.55
2019-02-10T20:05:19.983Z,73.37
2019-02-10T20:08:22.927Z,73.48
2019-02-10T20:11:08.330Z,73.13
2019-02-10T20:13:50.758Z,72.80
2019-02-10T20:16:45.508Z,72.66
2019-02-10T20:19:33.303Z,72.56
2019-02-10T20:22:35.584Z,71.69
2019-02-10T20:25:16.131Z,71.12
2019-02-10T20:28:01.308Z,70.65
2019-02-10T20:30:37.124Z,70.56
2019-02-10T20:33:39.466Z,70.21
2019-02-10T20:36:30.501Z,69.52
2019-02-10T20:39:32.000Z,69.43
2019-02-10T20:42:19.230Z,69.08
2019-02-10T20:45:07.745Z,68.87
2019-02-10T20:47:50.558Z,68.44
2019-02-10T20:50:35.674Z,68.35
2019-02-10T20:53:17.113Z,67.83
2019-02-10T20:55:50.556Z,67.99
2019-02-10T20:58:44.006Z,67.87
2019-02-10T21:01:34.826Z,67.83
2019-02-10T21:04:31.401Z,67.74
2019-02-10T21:07:27.194Z,67.25
2019-02-10T21:10:17.819Z,67.16
2019-02-10T21:13:05.411Z,67.57
2019-02-10T21:15:49.577Z,67.53
2019-02-10T21:18:42.979Z,67.83
2019-02-10T21:21:28.514Z,67.85
2019-02-10T21:24:13.915Z,67.59
2019-02-10T21:26:50.691Z,67.50
2019-02-10T21:29:35.675Z,67.45
2019-02-10T21:32:25.704Z,66.48
2019-02-10T21:35:05.125Z,65.54
2019-02-10T21:37:54.610Z,65.59
2019-02-10T21:40:48.004Z,64.24
2019-02-10T21:43:52.954Z,64.60
2019-02-10T21:46:39.669Z,64.53
2019-02-10T21:49:09.185Z,64.92
2019-02-10T21:51:36.316Z,64.89
2019-02-10T21:54:03.520Z,65.28
2019-02-10T21:56:30.656Z,65.32
2019-02-10T21:58:57.784Z,65.06
2019-02-10T22:01:24.874Z,65.15
2019-02-10T22:03:52.000Z,65.56
2019-02-10T22:06:19.095Z,65.70
2019-02-10T22:08:46.189Z,65.68
2019-02-10T22:11:13.281Z,65.72
2019-02-10T22:13:40.710Z,65.79
2019-02-10T22:16:07.854Z,66.18
2019-02-10T22:18:34.984Z,66.15
2019-02-10T22:21:02.076Z,66.08
2019-02-10T22:23:29.173Z,66.00
2019-02-10T22:25:56.221Z,65.95
2019-02-10T22:28:23.259Z,66.12
2019-02-10T22:30:50.317Z,66.19
2019-02-10T22:33:17.390Z,65.94
2019-02-10T22:35:44.398Z,66.13
2019-02-10T22:38:11.437Z,66.41
2019-02-10T22:40:38.494Z,66.63
2019-02-10T22:43:05.559Z,66.20
2019-02-10T22:45:32.599Z,66.14
2019-02-10T22:47:59.649Z,66.30
2019-02-10T22:50:26.688Z,65.91
2019-02-10T22:52:53.727Z,65.70
2019-02-10T22:55:20.751Z,65.55
2019-02-10T22:57:47.781Z,65.71
2019-02-10T23:00:39.374Z,65.48
2019-02-10T23:03:06.405Z,65.48
2019-02-10T23:05:33.435Z,65.54
2019-02-10T23:08:00.494Z,65.85
2019-02-10T23:10:27.533Z,65.86
2019-02-10T23:12:55.190Z,65.67
2019-02-10T23:15:22.222Z,65.49
2019-02-10T23:17:49.326Z,65.29
2019-02-10T23:20:16.311Z,63.98
2019-02-10T23:22:43.360Z,62.96
2019-02-10T23:25:13.188Z,62.60
2019-02-10T23:27:40.254Z,62.26
2019-02-10T23:30:07.293Z,61.58
2019-02-10T23:32:34.314Z,61.90
2019-02-10T23:35:01.342Z,61.93
2019-02-10T23:37:28.375Z,61.60
2019-02-10T23:39:55.413Z,61.45
2019-02-10T23:42:22.455Z,61.25
2019-02-10T23:44:49.497Z,60.88
2019-02-10T23:47:16.543Z,60.79
2019-02-10T23:49:43.689Z,60.78
2019-02-10T23:52:10.728Z,60.68
2019-02-10T23:54:37.751Z,60.27
2019-02-10T23:57:04.825Z,59.46
2019-02-10T23:59:31.847Z,59.72
